^^
Meteo Knjazevac Station Historical Data
Daily Summary for May 17, 2022 Units:  English    Metric   Both
Daily Weekly Monthly Yearly Custom
  High: Low: Average:
Temperature: 90 °F 47.5 °F 68.8 °F
Dew Point: 60.9 °F 43.2 °F 53.6 °F
Humidity: 89% 34% 62%
Wind Speed: 18mph 0mph 3.3mph
Wind Gust: 30mph - -
Wind- - SW
Pressure: 30.13 in 29.94 in -
Precipitation: 0.02 in    
Historical Graphs
 
 
Tabular Data for May 17, 2022
Time Temperature Dew Point Pressure Wind Wind Speed Wind Gust Humidity Rainfall Rate (Hourly) solar Conditions
00:00 56.1 °F 47.2 °F 30.13 in Calm   3 mph 72% 0.00 in 0 W/m2
00:10 55.6 °F 46.7 °F 30.12 in Calm   2 mph 72% 0.00 in 0 W/m2
00:20 54.8 °F 46.3 °F 30.13 in WNW 1 mph 3 mph 73% 0.00 in 0 W/m2
00:30 54.1 °F 45.7 °F 30.12 in Calm   2 mph 73% 0.00 in 0 W/m2
00:40 53.6 °F 45.5 °F 30.12 in West 1 mph 2 mph 74% 0.00 in 0 W/m2
00:50 53.1 °F 45.3 °F 30.12 in WNW 3 mph 6 mph 75% 0.00 in 0 W/m2
01:00 53.1 °F 46 °F 30.12 in WNW 1 mph 5 mph 77% 0.00 in 0 W/m2
01:10 53.1 °F 45.3 °F 30.12 in WNW 2 mph 4 mph 75% 0.00 in 0 W/m2
01:20 52.5 °F 45.5 °F 30.12 in WNW 2 mph 3 mph 77% 0.00 in 0 W/m2
01:30 52.5 °F 45.5 °F 30.12 in West 2 mph 3 mph 77% 0.00 in 0 W/m2
01:40 52 °F 45 °F 30.12 in Calm   3 mph 77% 0.00 in 0 W/m2
01:50 51.4 °F 44.8 °F 30.12 in Calm   2 mph 78% 0.00 in 0 W/m2
02:00 51.1 °F 44.5 °F 30.12 in WNW 1 mph 2 mph 78% 0.00 in 0 W/m2
02:10 50.9 °F 44.6 °F 30.12 in WNW 2 mph 3 mph 79% 0.00 in 0 W/m2
02:20 50.7 °F 44.8 °F 30.12 in West 1 mph 4 mph 80% 0.00 in 0 W/m2
02:30 50.5 °F 44.6 °F 30.12 in West 2 mph 4 mph 80% 0.00 in 0 W/m2
02:40 50.1 °F 44.2 °F 30.12 in WSW 2 mph 4 mph 80% 0.00 in 0 W/m2
02:50 50 °F 44.4 °F 30.12 in West 2 mph 5 mph 81% 0.00 in 0 W/m2
03:00 49.8 °F 43.9 °F 30.12 in West 1 mph 4 mph 80% 0.00 in 0 W/m2
03:10 49.6 °F 44 °F 30.12 in WNW 1 mph 2 mph 81% 0.00 in 0 W/m2
03:20 49.3 °F 43.7 °F 30.12 in NW 1 mph 2 mph 81% 0.00 in 0 W/m2
03:30 49.3 °F 44.3 °F 30.11 in WNW 5 mph 6 mph 83% 0.00 in 0 W/m2
03:40 49.5 °F 44.5 °F 30.12 in WNW 2 mph 6 mph 83% 0.00 in 0 W/m2
03:50 49.1 °F 44.2 °F 30.12 in West 1 mph 4 mph 83% 0.00 in 0 W/m2
04:00 48.7 °F 43.8 °F 30.11 in WNW 2 mph 3 mph 83% 0.00 in 0 W/m2
04:10 48.7 °F 44.1 °F 30.11 in West 2 mph 4 mph 84% 0.00 in 0 W/m2
04:20 48.6 °F 43.9 °F 30.11 in West 2 mph 4 mph 84% 0.00 in 0 W/m2
04:30 48.4 °F 43.8 °F 30.11 in West 1 mph 3 mph 84% 0.00 in 0 W/m2
04:40 48 °F 43.7 °F 30.11 in WSW 2 mph 4 mph 85% 0.00 in 0 W/m2
04:50 47.5 °F 43.2 °F 30.11 in WSW 3 mph 5 mph 85% 0.00 in 0 W/m2
05:00 47.5 °F 43.5 °F 30.11 in West 3 mph 5 mph 86% 0.00 in 0 W/m2
05:10 47.5 °F 43.5 °F 30.11 in West 1 mph 4 mph 86% 0.00 in 6 W/m2
05:20 47.5 °F 43.5 °F 30.11 in West 3 mph 6 mph 86% 0.00 in 12 W/m2
05:30 47.7 °F 44.3 °F 30.11 in West 5 mph 6 mph 88% 0.00 in 20 W/m2
05:40 47.8 °F 44.5 °F 30.11 in West 3 mph 5 mph 88% 0.00 in 28 W/m2
05:50 47.8 °F 44.5 °F 30.12 in WSW 1 mph 5 mph 88% 0.00 in 38 W/m2
06:00 47.7 °F 44.3 °F 30.12 in West 2 mph 4 mph 88% 0.00 in 66 W/m2
06:10 47.8 °F 44.5 °F 30.12 in West 3 mph 5 mph 88% 0.00 in 86 W/m2
06:20 48.4 °F 45.3 °F 30.12 in West 3 mph 5 mph 89% 0.00 in 108 W/m2
06:30 49.1 °F 46 °F 30.12 in West 3 mph 4 mph 89% 0.00 in 130 W/m2
06:40 49.6 °F 46.2 °F 30.12 in West 2 mph 4 mph 88% 0.00 in 157 W/m2
06:50 50.4 °F 46.9 °F 30.12 in West 2 mph 3 mph 88% 0.00 in 187 W/m2
07:00 51.1 °F 47.6 °F 30.12 in West 2 mph 3 mph 88% 0.00 in 214 W/m2
07:10 52 °F 47.9 °F 30.12 in WNW 1 mph 2 mph 86% 0.00 in 245 W/m2
07:20 52.8 °F 48.7 °F 30.11 in West 2 mph 3 mph 86% 0.00 in 277 W/m2
07:30 53.8 °F 49.4 °F 30.11 in West 2 mph 4 mph 85% 0.00 in 308 W/m2
07:40 55.1 °F 50.3 °F 30.11 in West 2 mph 4 mph 84% 0.00 in 295 W/m2
07:50 56.2 °F 51.1 °F 30.11 in WNW 1 mph 3 mph 83% 0.00 in 370 W/m2
08:00 57.3 °F 51.1 °F 30.11 in West 2 mph 4 mph 80% 0.00 in 402 W/m2
08:10 58.7 °F 51.9 °F 30.11 in WNW 2 mph 4 mph 78% 0.00 in 436 W/m2
08:20 60.7 °F 52.7 °F 30.11 in WNW 1 mph 5 mph 75% 0.00 in 472 W/m2
08:30 63.3 °F 54.5 °F 30.11 in West 2 mph 4 mph 73% 0.00 in 508 W/m2
08:40 65.5 °F 55.1 °F 30.10 in WNW 1 mph 4 mph 69% 0.00 in 546 W/m2
08:50 67.5 °F 56.6 °F 30.10 in WNW 1 mph 3 mph 68% 0.00 in 578 W/m2
09:00 69.5 °F 56.8 °F 30.10 in ESE 2 mph 5 mph 64% 0.00 in 609 W/m2
09:10 71.1 °F 57.4 °F 30.10 in WSW 1 mph 4 mph 62% 0.00 in 636 W/m2
09:20 72.7 °F 58.5 °F 30.09 in WSW 1 mph 3 mph 61% 0.00 in 668 W/m2
09:30 74.2 °F 58.5 °F 30.09 in SSW 2 mph 4 mph 58% 0.00 in 696 W/m2
09:40 75.4 °F 59.1 °F 30.09 in SSW 2 mph 4 mph 57% 0.00 in 723 W/m2
09:50 76.5 °F 59.1 °F 30.09 in East 1 mph 4 mph 55% 0.00 in 751 W/m2
10:00 77.5 °F 59.6 °F 30.08 in SE 1 mph 5 mph 54% 0.00 in 776 W/m2
10:10 78.4 °F 59.9 °F 30.08 in WSW 2 mph 4 mph 53% 0.00 in 798 W/m2
10:20 79.2 °F 60.6 °F 30.08 in SSW 2 mph 5 mph 53% 0.00 in 823 W/m2
10:30 80.1 °F 59.7 °F 30.08 in South 1 mph 6 mph 50% 0.00 in 846 W/m2
10:40 80.6 °F 59.7 °F 30.07 in SE 3 mph 6 mph 49% 0.00 in 132 W/m2
10:50 81.3 °F 59.8 °F 30.07 in NW 3 mph 5 mph 48% 0.00 in 880 W/m2
11:00 81.9 °F 59.7 °F 30.07 in SSW 1 mph 5 mph 47% 0.00 in 892 W/m2
11:10 82.6 °F 57.8 °F 30.06 in WSW 2 mph 5 mph 43% 0.00 in 708 W/m2
11:20 83 °F 58.2 °F 30.06 in SSW 5 mph 7 mph 43% 0.00 in 917 W/m2
11:30 83.3 °F 56.5 °F 30.06 in SE 2 mph 6 mph 40% 0.00 in 926 W/m2
11:40 83.8 °F 56.9 °F 30.06 in NE 1 mph 6 mph 40% 0.00 in 934 W/m2
11:50 84.4 °F 56 °F 30.05 in ESE 3 mph 8 mph 38% 0.00 in 940 W/m2
12:00 84.4 °F 56 °F 30.05 in SSE 2 mph 8 mph 38% 0.00 in 945 W/m2
12:10 84.6 °F 56.2 °F 30.05 in ESE 2 mph 12 mph 38% 0.00 in 948 W/m2
12:20 84.9 °F 57.2 °F 30.04 in East 2 mph 9 mph 39% 0.00 in 950 W/m2
12:30 85.3 °F 56.8 °F 30.04 in ESE 5 mph 9 mph 38% 0.00 in 950 W/m2
12:40 86 °F 57.4 °F 30.04 in NNE 3 mph 10 mph 38% 0.00 in 948 W/m2
12:50 86.9 °F 58.2 °F 30.04 in SSE 3 mph 8 mph 38% 0.00 in 945 W/m2
13:00 87.1 °F 57.7 °F 30.03 in SW 6 mph 8 mph 37% 0.00 in 751 W/m2
13:10 87 °F 57.5 °F 30.03 in SSW 5 mph 8 mph 37% 0.00 in 934 W/m2
13:20 86.9 °F 57.5 °F 30.02 in SSW 3 mph 7 mph 37% 0.00 in 927 W/m2
13:30 86.7 °F 55.8 °F 30.02 in SE 3 mph 7 mph 35% 0.00 in 917 W/m2
13:40 86.7 °F 56.6 °F 30.02 in SE 5 mph 9 mph 36% 0.00 in 907 W/m2
13:50 87.3 °F 58.6 °F 30.01 in NE 3 mph 5 mph 38% 0.00 in 894 W/m2
14:00 87.7 °F 58.9 °F 30.01 in East 2 mph 7 mph 38% 0.00 in 867 W/m2
14:10 88 °F 57.7 °F 30.00 in East 1 mph 7 mph 36% 0.00 in 866 W/m2
14:20 88.3 °F 57.2 °F 29.99 in SE 2 mph 6 mph 35% 0.00 in 826 W/m2
14:30 88.2 °F 57.8 °F 29.99 in ESE 1 mph 8 mph 36% 0.00 in 806 W/m2
14:40 88.5 °F 58.9 °F 29.99 in SSE 2 mph 8 mph 37% 0.00 in 813 W/m2
14:50 88.8 °F 59.1 °F 29.98 in SE 5 mph 8 mph 37% 0.00 in 792 W/m2
15:00 89.1 °F 57.8 °F 29.97 in SSE 6 mph 9 mph 35% 0.00 in 771 W/m2
15:10 89 °F 57.8 °F 29.97 in SW 7 mph 13 mph 35% 0.00 in 748 W/m2
15:20 89.1 °F 57.8 °F 29.96 in NW 3 mph 15 mph 35% 0.00 in 725 W/m2
15:30 88.9 °F 56.9 °F 29.96 in WNW 5 mph 12 mph 34% 0.00 in 700 W/m2
15:40 89.2 °F 57.2 °F 29.96 in WNW 1 mph 8 mph 34% 0.00 in 674 W/m2
15:50 89.2 °F 58 °F 29.95 in WNW 2 mph 7 mph 35% 0.00 in 645 W/m2
16:00 89.6 °F 58.3 °F 29.95 in West 5 mph 7 mph 35% 0.00 in 611 W/m2
16:10 90 °F 57.8 °F 29.95 in WSW 2 mph 7 mph 34% 0.00 in 592 W/m2
16:20 90 °F 57.8 °F 29.95 in WSW 3 mph 7 mph 34% 0.00 in 564 W/m2
16:30 88.9 °F 57.7 °F 29.95 in West 3 mph 7 mph 35% 0.00 in 161 W/m2
16:40 88.2 °F 57.8 °F 29.94 in WSW 3 mph 10 mph 36% 0.00 in 397 W/m2
16:50 88.2 °F 57.1 °F 29.94 in WSW 3 mph 7 mph 35% 0.00 in 264 W/m2
17:00 87.5 °F 58 °F 29.95 in SW 9 mph 12 mph 37% 0.00 in 320 W/m2
17:10 86.9 °F 58.2 °F 29.94 in SW 8 mph 12 mph 38% 0.00 in 301 W/m2
17:20 86.4 °F 57.8 °F 29.94 in SW 8 mph 13 mph 38% 0.00 in 197 W/m2
17:30 85.5 °F 57.8 °F 29.95 in WSW 9 mph 16 mph 39% 0.00 in 166 W/m2
17:40 84.7 °F 57 °F 29.95 in SW 8 mph 14 mph 39% 0.00 in 118 W/m2
17:50 84 °F 57.8 °F 29.95 in SW 7 mph 13 mph 41% 0.00 in 100 W/m2
18:00 83.5 °F 58 °F 29.95 in WSW 5 mph 9 mph 42% 0.00 in 78 W/m2
18:10 82.8 °F 58 °F 29.95 in WSW 6 mph 9 mph 43% 0.00 in 66 W/m2
18:20 82.3 °F 58.2 °F 29.95 in WSW 3 mph 8 mph 44% 0.00 in 54 W/m2
18:30 81.8 °F 57.7 °F 29.95 in WSW 3 mph 7 mph 44% 0.00 in 29 W/m2
18:40 81.3 °F 57.9 °F 29.95 in WSW 3 mph 6 mph 45% 0.00 in 14 W/m2
18:50 80.8 °F 58.7 °F 29.95 in WSW 2 mph 4 mph 47% 0.00 in 9 W/m2
19:00 79.9 °F 60.1 °F 29.96 in West 18 mph 28 mph 51% 0.00 in 5 W/m2
19:10 76.2 °F 60.8 °F 29.97 in West 13 mph 30 mph 59% 0.00 in 4 W/m2
19:20 72.5 °F 60.9 °F 29.98 in West 14 mph 28 mph 67% 0.00 in 2 W/m2
19:30 70.9 °F 59.8 °F 29.98 in WNW 13 mph 24 mph 68% 0.00 in 0 W/m2
19:40 70 °F 59.3 °F 29.97 in WNW 10 mph 19 mph 69% 0.00 in 0 W/m2
19:50 69.6 °F 59.4 °F 29.97 in WNW 9 mph 21 mph 70% 0.01 in 0 W/m2
20:00 69.3 °F 59.1 °F 29.98 in SSE 3 mph 12 mph 70% 0.00 in 0 W/m2
20:10 69 °F 58.8 °F 29.99 in South 5 mph 8 mph 70% 0.00 in 0 W/m2
20:20 68.7 °F 58.1 °F 30.00 in SSW 3 mph 7 mph 69% 0.00 in 0 W/m2
20:30 68.5 °F 58 °F 30.00 in WSW 6 mph 8 mph 69% 0.00 in 0 W/m2
20:40 68.5 °F 57.6 °F 30.00 in WSW 2 mph 8 mph 68% 0.00 in 0 W/m2
20:50 68.3 °F 57.7 °F 30.00 in SW 2 mph 5 mph 69% 0.00 in 0 W/m2
21:00 68.2 °F 57.2 °F 30.01 in SW 3 mph 5 mph 68% 0.00 in 0 W/m2
21:10 68 °F 57.4 °F 30.02 in WSW 3 mph 5 mph 69% 0.00 in 0 W/m2
21:20 67.8 °F 56.9 °F 30.03 in SW 9 mph 14 mph 68% 0.00 in 0 W/m2
21:30 67.8 °F 56.9 °F 30.03 in SW 8 mph 15 mph 68% 0.00 in 0 W/m2
21:40 67.7 °F 57.2 °F 30.03 in SW 7 mph 12 mph 69% 0.00 in 0 W/m2
21:50 67.6 °F 57.1 °F 30.04 in SW 2 mph 10 mph 69% 0.00 in 0 W/m2
22:00 67.6 °F 57 °F 30.05 in WNW 3 mph 6 mph 69% 0.00 in 0 W/m2
22:10 67.5 °F 56.9 °F 30.06 in West 6 mph 13 mph 69% 0.00 in 0 W/m2
22:20 67.3 °F 57.2 °F 30.07 in West 10 mph 15 mph 70% 0.01 in 0 W/m2
22:30 66.9 °F 58 °F 30.07 in WSW 6 mph 16 mph 73% 0.01 in 0 W/m2
22:40 66.4 °F 57.8 °F 30.07 in West 5 mph 13 mph 74% 0.00 in 0 W/m2
22:50 66 °F 57.5 °F 30.07 in West 7 mph 13 mph 74% 0.00 in 0 W/m2
23:00 65.8 °F 57.7 °F 30.06 in West 3 mph 12 mph 75% 0.00 in 0 W/m2
23:10 65.7 °F 57.1 °F 30.06 in NNW 2 mph 9 mph 74% 0.00 in 0 W/m2
23:20 65.7 °F 57.1 °F 30.05 in NNE 1 mph 5 mph 74% 0.00 in 0 W/m2
23:30 65.7 °F 57.1 °F 30.05 in ENE 1 mph 4 mph 74% 0.00 in 0 W/m2
23:40 65.5 °F 57.3 °F 30.04 in WNW 3 mph 5 mph 75% 0.00 in 0 W/m2
23:50 65.2 °F 57.1 °F 30.04 in SW 3 mph 7 mph 75% 0.00 in 0 W/m2
Knjazevac, Serbia
Compliments of Weather Underground - 2 mb